Time;durP1;ratioP1;P1;durP2;ratioP2;P2;SDS_P1;SDS_P2;PMS_P1;PMS_P2;Temp;Humidity;BMP_temperature;BMP_pressure;BME280_temperature;BME280_humidity;BME280_pressure;Samples;Min_cycle;Max_cycle;Signal;HPM_P1;HPM_P2
2022/02/18 00:00:54;;;;;;;5.80;1.30;;;13.60;99.90;;;;;;6151666;23;20052;-73
2022/02/18 00:03:24;;;;;;;8.65;1.60;;;13.60;99.90;;;;;;6152877;23;20013;-73
2022/02/18 00:05:50;;;;;;;8.50;1.70;;;13.60;99.90;;;;;;6152187;23;20013;-73
2022/02/18 00:08:17;;;;;;;8.48;1.50;;;13.70;99.90;;;;;;6151890;23;20439;-73
2022/02/18 00:10:43;;;;;;;8.75;1.48;;;13.70;99.90;;;;;;6152382;23;20014;-73
2022/02/18 00:13:09;;;;;;;9.63;1.60;;;13.70;99.90;;;;;;6151916;23;20007;-74
2022/02/18 00:15:35;;;;;;;10.43;1.40;;;13.80;99.90;;;;;;6151899;23;20477;-73
2022/02/18 00:18:02;;;;;;;10.98;1.50;;;13.80;99.90;;;;;;6152253;23;20035;-73
2022/02/18 00:20:29;;;;;;;13.55;1.92;;;13.80;99.90;;;;;;6152007;23;20320;-73
2022/02/18 00:22:55;;;;;;;8.82;1.70;;;13.80;99.90;;;;;;6151942;23;20001;-73
2022/02/18 00:25:20;;;;;;;14.18;1.67;;;13.80;99.90;;;;;;6152254;23;20010;-73
2022/02/18 00:27:46;;;;;;;14.77;1.95;;;13.80;99.90;;;;;;6152360;23;20005;-74
2022/02/18 00:30:12;;;;;;;10.10;2.03;;;13.80;99.90;;;;;;6151702;23;20382;-73
2022/02/18 00:32:38;;;;;;;9.85;1.75;;;13.80;99.90;;;;;;6151981;23;20020;-73
2022/02/18 00:35:05;;;;;;;13.55;2.13;;;13.90;99.90;;;;;;6152389;23;20068;-73
2022/02/18 00:37:31;;;;;;;12.15;2.40;;;13.90;99.90;;;;;;6152072;23;19997;-73
2022/02/18 00:39:57;;;;;;;14.52;2.05;;;13.90;99.90;;;;;;6152121;23;20012;-73
2022/02/18 00:42:24;;;;;;;12.93;1.90;;;13.90;99.90;;;;;;6151782;23;20505;-73
2022/02/18 00:44:50;;;;;;;10.38;1.55;;;13.90;99.90;;;;;;6151771;23;20013;-73
2022/02/18 00:47:15;;;;;;;12.55;1.92;;;13.90;99.90;;;;;;6152409;23;20005;-73
2022/02/18 00:49:41;;;;;;;11.45;1.65;;;13.80;99.90;;;;;;6152028;23;20008;-73
2022/02/18 00:52:07;;;;;;;10.73;2.22;;;13.80;99.90;;;;;;6151448;23;20010;-74
2022/02/18 00:54:33;;;;;;;12.10;1.85;;;13.80;99.90;;;;;;6152202;23;20009;-73
2022/02/18 00:56:59;;;;;;;9.93;1.60;;;13.80;99.90;;;;;;6152010;23;20394;-73
2022/02/18 00:59:25;;;;;;;14.35;2.20;;;13.80;99.90;;;;;;6151970;23;20005;-73
2022/02/18 01:01:51;;;;;;;18.40;2.30;;;13.70;99.90;;;;;;6151844;23;20387;-73
2022/02/18 01:04:17;;;;;;;12.93;2.22;;;13.70;99.90;;;;;;6151980;23;20025;-74
2022/02/18 01:06:43;;;;;;;10.20;1.90;;;13.70;99.90;;;;;;6152872;23;20084;-73
2022/02/18 01:09:11;;;;;;;13.25;2.00;;;13.70;99.90;;;;;;6153714;23;20008;-74
2022/02/18 01:11:37;;;;;;;12.30;1.92;;;13.60;99.90;;;;;;6153217;23;20092;-73
2022/02/18 01:14:05;;;;;;;9.52;1.67;;;13.60;99.90;;;;;;6153742;23;20001;-73
2022/02/18 01:16:31;;;;;;;12.43;1.77;;;13.60;99.90;;;;;;6153831;23;20060;-73
2022/02/18 01:18:57;;;;;;;15.40;1.80;;;13.60;99.90;;;;;;6153820;23;19997;-73
2022/02/18 01:21:24;;;;;;;12.32;1.80;;;13.60;99.90;;;;;;6153507;23;20025;-73
2022/02/18 01:23:50;;;;;;;9.13;1.20;;;13.60;99.90;;;;;;6153822;23;20009;-73
2022/02/18 01:26:17;;;;;;;9.75;1.40;;;13.60;99.90;;;;;;6153383;23;20077;-73
2022/02/18 01:28:42;;;;;;;10.98;1.60;;;13.60;99.90;;;;;;6153760;23;20001;-73
2022/02/18 01:31:08;;;;;;;11.45;1.50;;;13.60;99.90;;;;;;6153091;23;20346;-73
2022/02/18 01:33:34;;;;;;;10.15;1.55;;;13.60;99.90;;;;;;6153482;23;20011;-73
2022/02/18 01:36:00;;;;;;;8.63;1.40;;;13.60;99.90;;;;;;6153716;23;20033;-73
2022/02/18 01:38:26;;;;;;;7.90;1.38;;;13.60;99.90;;;;;;6153578;23;20327;-73
2022/02/18 01:40:52;;;;;;;9.27;1.35;;;13.70;99.90;;;;;;6153099;23;20072;-73
2022/02/18 01:43:18;;;;;;;8.65;1.30;;;13.70;99.90;;;;;;6153392;23;20021;-73
2022/02/18 01:45:44;;;;;;;8.25;1.40;;;13.70;99.90;;;;;;6153714;23;20041;-73
2022/02/18 01:48:10;;;;;;;6.15;1.17;;;13.60;99.90;;;;;;6153289;23;20009;-73
2022/02/18 01:50:37;;;;;;;7.03;1.17;;;13.60;99.90;;;;;;6153174;23;20355;-73
2022/02/18 01:53:04;;;;;;;5.32;0.98;;;13.60;99.90;;;;;;6153369;23;20010;-73
2022/02/18 01:55:31;;;;;;;6.95;1.15;;;13.60;99.90;;;;;;6153141;23;20039;-73
2022/02/18 01:57:58;;;;;;;8.73;1.30;;;13.60;99.90;;;;;;6153484;23;20006;-73
2022/02/18 02:00:27;;;;;;;7.13;1.13;;;13.60;99.90;;;;;;6153438;23;20755;-73
2022/02/18 02:02:54;;;;;;;7.68;1.10;;;13.60;99.90;;;;;;6153317;23;20005;-73
2022/02/18 02:05:21;;;;;;;6.22;0.93;;;13.60;99.90;;;;;;6153126;23;20012;-74
2022/02/18 02:07:48;;;;;;;5.57;1.00;;;13.60;99.90;;;;;;6153489;23;20009;-73
2022/02/18 02:10:16;;;;;;;4.80;0.82;;;13.60;99.90;;;;;;6152788;23;20056;-73
2022/02/18 02:12:50;;;;;;;6.35;1.00;;;13.70;99.90;;;;;;6153202;23;20346;-73
2022/02/18 02:15:25;;;;;;;7.65;1.00;;;13.60;99.90;;;;;;6153432;23;20092;-73
2022/02/18 02:17:51;;;;;;;5.40;0.80;;;13.60;99.90;;;;;;6153218;23;20355;-73
2022/02/18 02:20:18;;;;;;;4.72;0.88;;;13.70;99.90;;;;;;6152883;23;20002;-73
2022/02/18 02:22:44;;;;;;;4.88;0.80;;;13.70;99.90;;;;;;6153326;23;20357;-73
2022/02/18 02:25:10;;;;;;;5.00;0.80;;;13.70;99.90;;;;;;6153221;23;20033;-73
2022/02/18 02:27:36;;;;;;;4.45;0.80;;;13.70;99.90;;;;;;6152933;23;20617;-73
2022/02/18 02:30:04;;;;;;;5.93;1.00;;;13.70;99.90;;;;;;6153200;23;20419;-73
2022/02/18 02:32:30;;;;;;;5.22;0.77;;;13.70;99.90;;;;;;6153213;23;20017;-73
2022/02/18 02:34:56;;;;;;;6.20;0.95;;;13.70;99.90;;;;;;6152872;23;20080;-73
2022/02/18 02:37:22;;;;;;;6.28;0.90;;;13.70;99.90;;;;;;6176287;23;20006;-73
2022/02/18 02:39:48;;;;;;;5.82;0.73;;;13.70;99.90;;;;;;6153069;23;20081;-73
2022/02/18 02:42:14;;;;;;;7.25;1.00;;;13.70;99.90;;;;;;6152640;23;20001;-73
2022/02/18 02:44:40;;;;;;;6.80;0.80;;;13.70;99.90;;;;;;6152483;23;20009;-73
2022/02/18 02:47:06;;;;;;;6.82;0.80;;;13.70;99.90;;;;;;6152838;23;20056;-73
2022/02/18 02:49:32;;;;;;;4.28;0.73;;;13.70;99.90;;;;;;6152672;23;20401;-73
2022/02/18 02:51:59;;;;;;;7.40;1.27;;;13.70;99.90;;;;;;6152935;23;20014;-73
2022/02/18 02:54:25;;;;;;;5.70;0.85;;;13.60;99.90;;;;;;6152746;23;20005;-73
2022/02/18 02:56:56;;;;;;;10.02;1.00;;;13.70;99.90;;;;;;6152770;23;20052;-73
2022/02/18 02:59:23;;;;;;;7.50;1.08;;;13.60;99.90;;;;;;6152319;23;20493;-73
2022/02/18 03:01:50;;;;;;;7.53;1.20;;;13.60;99.90;;;;;;6153050;23;20005;-73
2022/02/18 03:04:15;;;;;;;7.22;1.00;;;13.60;99.90;;;;;;6152836;23;20076;-73
2022/02/18 03:06:41;;;;;;;11.38;1.33;;;13.60;99.90;;;;;;6152733;23;20036;-73
2022/02/18 03:09:09;;;;;;;8.30;1.15;;;13.60;99.90;;;;;;6152407;23;20013;-73
2022/02/18 03:11:36;;;;;;;12.48;1.30;;;13.60;99.90;;;;;;6152479;23;20020;-73
2022/02/18 03:14:04;;;;;;;9.70;1.30;;;13.60;99.90;;;;;;6152674;23;20021;-73
2022/02/18 03:16:29;;;;;;;6.93;1.10;;;13.60;99.90;;;;;;6152568;23;20087;-73
2022/02/18 03:18:55;;;;;;;10.38;1.20;;;13.60;99.90;;;;;;6152541;23;20005;-73
2022/02/18 03:21:21;;;;;;;11.82;1.60;;;13.60;99.90;;;;;;6175629;23;20016;-73
2022/02/18 03:23:47;;;;;;;9.55;1.15;;;13.60;99.90;;;;;;6152286;23;20439;-73
2022/02/18 03:26:15;;;;;;;13.50;1.50;;;13.60;99.90;;;;;;6152543;23;20052;-73
2022/02/18 03:28:41;;;;;;;8.10;1.30;;;13.60;99.90;;;;;;6126222;23;20054;-73
2022/02/18 03:31:11;;;;;;;12.45;1.55;;;13.60;99.90;;;;;;6152321;23;20431;-73
2022/02/18 03:33:41;;;;;;;15.48;1.90;;;13.60;99.90;;;;;;6152414;23;20001;-73
2022/02/18 03:36:07;;;;;;;8.87;1.27;;;13.60;99.90;;;;;;6152356;23;20009;-73
2022/02/18 03:38:34;;;;;;;11.23;1.50;;;13.50;99.90;;;;;;6152376;23;20006;-73
2022/02/18 03:41:01;;;;;;;11.00;1.70;;;13.50;99.90;;;;;;6152396;23;20005;-73
2022/02/18 03:43:27;;;;;;;9.32;1.50;;;13.50;99.90;;;;;;6152175;23;20576;-73
2022/02/18 03:45:53;;;;;;;10.35;1.30;;;13.40;99.90;;;;;;6152335;23;20001;-73
2022/02/18 03:48:19;;;;;;;6.45;0.90;;;13.40;99.90;;;;;;6152298;23;20001;-73
2022/02/18 03:50:45;;;;;;;11.60;1.38;;;13.40;99.90;;;;;;6152203;23;20035;-73
2022/02/18 03:53:11;;;;;;;10.35;1.17;;;13.30;99.90;;;;;;6152339;23;20047;-73
2022/02/18 03:55:36;;;;;;;5.32;0.80;;;13.30;99.90;;;;;;6152123;23;20001;-73
2022/02/18 03:58:03;;;;;;;7.25;0.90;;;13.30;99.90;;;;;;6152397;23;20502;-73
2022/02/18 04:00:29;;;;;;;8.10;1.20;;;13.30;99.90;;;;;;6152082;23;20434;-73
2022/02/18 04:02:54;;;;;;;9.88;1.02;;;13.20;99.90;;;;;;6152458;23;20017;-73
2022/02/18 04:05:20;;;;;;;7.45;1.00;;;13.30;99.90;;;;;;6152305;23;20369;-73
2022/02/18 04:07:46;;;;;;;7.30;1.15;;;13.20;99.90;;;;;;6151984;23;20358;-73
2022/02/18 04:10:12;;;;;;;6.43;1.20;;;13.20;99.90;;;;;;6152241;23;20438;-73
2022/02/18 04:12:38;;;;;;;6.38;1.02;;;13.20;99.90;;;;;;6152020;23;20092;-73
2022/02/18 04:15:04;;;;;;;9.45;0.95;;;13.20;99.90;;;;;;6174875;23;20500;-73
2022/02/18 04:17:31;;;;;;;5.32;0.90;;;13.20;99.90;;;;;;6152175;23;20468;-73
2022/02/18 04:19:56;;;;;;;7.15;1.27;;;13.10;99.90;;;;;;6151980;23;20339;-73
2022/02/18 04:22:22;;;;;;;7.38;1.08;;;13.20;99.90;;;;;;6152152;23;20081;-73
2022/02/18 04:24:48;;;;;;;5.43;0.75;;;13.10;99.90;;;;;;6152089;23;20040;-73
2022/02/18 04:27:14;;;;;;;5.50;0.90;;;13.10;99.90;;;;;;6152431;23;20014;-73
2022/02/18 04:29:40;;;;;;;5.13;0.90;;;13.10;99.90;;;;;;6151690;23;20036;-73
2022/02/18 04:32:06;;;;;;;4.55;0.82;;;13.10;99.90;;;;;;6151997;23;20013;-73
2022/02/18 04:34:32;;;;;;;8.35;1.00;;;13.10;99.90;;;;;;6152093;23;20002;-73
2022/02/18 04:36:57;;;;;;;4.63;0.85;;;13.10;99.90;;;;;;6152490;23;20449;-73
2022/02/18 04:39:23;;;;;;;6.25;0.98;;;13.10;99.90;;;;;;6152057;23;20502;-73
2022/02/18 04:41:49;;;;;;;6.88;0.90;;;13.10;99.90;;;;;;6152707;23;20005;-73
2022/02/18 04:44:16;;;;;;;4.05;0.80;;;13.10;99.90;;;;;;6153732;23;20018;-73
2022/02/18 04:46:42;;;;;;;5.80;0.82;;;13.10;99.90;;;;;;6154122;23;20056;-73
2022/02/18 04:49:08;;;;;;;5.45;0.80;;;13.10;99.90;;;;;;6153880;23;20005;-73
2022/02/18 04:51:37;;;;;;;5.68;1.00;;;13.10;99.90;;;;;;6153721;23;20304;-73
2022/02/18 04:54:04;;;;;;;5.10;0.80;;;13.20;99.90;;;;;;6153992;23;20033;-73
2022/02/18 04:56:29;;;;;;;5.85;1.00;;;13.20;99.90;;;;;;6154203;23;20006;-73
2022/02/18 04:58:55;;;;;;;4.25;0.70;;;13.20;99.90;;;;;;6153801;23;20005;-73
2022/02/18 05:01:21;;;;;;;8.68;0.90;;;13.20;99.90;;;;;;6153984;23;20009;-73
2022/02/18 05:03:46;;;;;;;4.95;0.90;;;13.20;99.90;;;;;;6153657;23;20343;-73
2022/02/18 05:06:12;;;;;;;8.95;1.02;;;13.20;99.90;;;;;;6154090;23;20001;-73
2022/02/18 05:08:38;;;;;;;6.15;0.98;;;13.20;99.90;;;;;;6153844;23;20044;-73
2022/02/18 05:11:04;;;;;;;4.47;0.80;;;13.20;99.90;;;;;;6153561;23;20093;-73
2022/02/18 05:13:30;;;;;;;9.43;0.98;;;13.30;99.90;;;;;;6153735;23;20025;-74
2022/02/18 05:15:55;;;;;;;5.90;0.75;;;13.30;99.90;;;;;;6154061;23;20386;-73
2022/02/18 05:18:21;;;;;;;7.88;1.10;;;13.30;99.90;;;;;;6153832;23;20505;-73
2022/02/18 05:20:47;;;;;;;2.88;0.73;;;13.30;99.90;;;;;;6153684;23;20002;-73
2022/02/18 05:23:13;;;;;;;8.05;1.13;;;13.30;99.90;;;;;;6152646;23;20002;-73
2022/02/18 05:25:39;;;;;;;5.72;0.90;;;13.30;99.90;;;;;;6153359;23;20012;-73
2022/02/18 05:28:04;;;;;;;8.80;1.33;;;13.30;99.90;;;;;;6153355;23;20002;-73
2022/02/18 05:30:31;;;;;;;7.38;1.10;;;13.30;99.90;;;;;;6153576;23;20497;-73
2022/02/18 05:32:57;;;;;;;10.27;1.20;;;13.30;99.90;;;;;;6152706;23;20005;-73
2022/02/18 05:35:23;;;;;;;8.00;1.00;;;13.40;99.90;;;;;;6153275;23;20449;-73
2022/02/18 05:37:49;;;;;;;6.88;0.90;;;13.30;99.90;;;;;;6153302;23;20002;-73
2022/02/18 05:40:15;;;;;;;9.50;1.25;;;13.30;99.90;;;;;;6153844;23;20006;-73
2022/02/18 05:42:41;;;;;;;10.77;1.45;;;13.40;99.90;;;;;;6152995;23;20021;-73
2022/02/18 05:45:11;;;;;;;8.40;1.50;;;13.40;99.90;;;;;;6153313;23;20005;-73
2022/02/18 05:47:38;;;;;;;6.80;1.10;;;13.40;99.90;;;;;;6152183;23;20009;-73
2022/02/18 05:50:08;;;;;;;9.13;1.30;;;13.40;99.90;;;;;;6153533;23;20077;-73
2022/02/18 05:52:35;;;;;;;5.57;0.85;;;13.40;99.90;;;;;;6153374;23;20041;-72
2022/02/18 05:55:01;;;;;;;7.15;1.08;;;13.50;99.90;;;;;;6152800;23;20570;-73
2022/02/18 05:57:27;;;;;;;12.57;1.48;;;13.50;99.90;;;;;;6153313;23;20505;-73
2022/02/18 05:59:53;;;;;;;8.65;1.10;;;13.50;99.90;;;;;;6152970;23;20001;-73
2022/02/18 06:02:19;;;;;;;8.20;1.00;;;13.50;99.90;;;;;;6152678;23;20431;-73
2022/02/18 06:04:45;;;;;;;5.68;0.90;;;13.40;99.90;;;;;;6153043;23;20001;-73
2022/02/18 06:07:10;;;;;;;8.38;1.38;;;13.40;99.90;;;;;;6152946;23;20002;-72
2022/02/18 06:09:36;;;;;;;11.73;1.00;;;13.40;99.90;;;;;;6153411;23;20029;-72
2022/02/18 06:12:02;;;;;;;10.88;1.38;;;13.40;99.90;;;;;;6152755;23;20394;-72
2022/02/18 06:14:28;;;;;;;10.50;1.42;;;13.40;99.90;;;;;;6152798;23;20001;-71
2022/02/18 06:16:54;;;;;;;10.60;1.10;;;13.40;99.90;;;;;;6152680;23;20002;-71
2022/02/18 16:55:43;;;;;;;9.40;1.60;;;12.80;49.40;;;;;;5349253;22;22352;-73
2022/02/18 16:58:09;;;;;;;7.28;1.65;;;12.70;49.10;;;;;;6273588;22;20035;-76
2022/02/18 17:00:36;;;;;;;11.25;1.77;;;12.50;49.90;;;;;;6274485;22;20436;-75
2022/02/18 17:03:03;;;;;;;11.55;1.70;;;12.40;49.20;;;;;;6274349;22;20007;-75
2022/02/18 17:05:30;;;;;;;12.35;1.77;;;12.30;49.40;;;;;;6274660;22;20024;-74
2022/02/18 17:07:56;;;;;;;11.27;1.50;;;12.20;49.70;;;;;;6274246;22;20046;-74
2022/02/18 17:10:23;;;;;;;11.60;1.77;;;12.00;49.50;;;;;;6274260;22;20004;-75
2022/02/18 17:12:50;;;;;;;10.75;1.60;;;12.00;50.10;;;;;;6274467;22;20019;-75
2022/02/18 17:15:17;;;;;;;9.52;1.77;;;11.90;50.30;;;;;;6274784;22;20455;-74
2022/02/18 17:17:44;;;;;;;9.00;1.30;;;11.80;50.50;;;;;;6274485;22;20455;-74
2022/02/18 17:20:11;;;;;;;11.93;1.92;;;11.70;50.70;;;;;;6274075;22;20014;-75
2022/02/18 17:22:38;;;;;;;11.07;1.90;;;11.60;51.30;;;;;;6274067;22;20053;-74
2022/02/18 17:25:06;;;;;;;12.27;1.48;;;11.50;52.40;;;;;;6273890;22;20006;-74
2022/02/18 17:27:33;;;;;;;10.40;1.58;;;11.50;52.90;;;;;;6274418;22;20043;-75
2022/02/18 17:30:00;;;;;;;13.90;1.70;;;11.30;53.40;;;;;;6247312;22;20321;-74
2022/02/18 17:32:29;;;;;;;8.15;1.50;;;11.30;53.90;;;;;;6274260;22;20019;-74
2022/02/18 17:34:55;;;;;;;11.32;1.48;;;11.20;53.90;;;;;;6274111;22;20008;-75
2022/02/18 17:37:25;;;;;;;8.65;1.52;;;11.10;54.00;;;;;;6273985;22;20061;-74
2022/02/18 17:39:53;;;;;;;7.07;1.60;;;11.10;54.50;;;;;;6273341;22;20011;-73
2022/02/18 17:42:20;;;;;;;7.43;1.40;;;11.00;55.20;;;;;;6274801;22;20731;-74
2022/02/18 17:44:47;;;;;;;12.65;1.60;;;11.00;55.90;;;;;;6273803;22;20561;-74
2022/02/18 17:47:13;;;;;;;13.00;1.95;;;10.90;54.80;;;;;;6273961;22;20004;-73
2022/02/18 17:49:39;;;;;;;8.85;1.80;;;10.90;54.90;;;;;;6274460;22;20450;-74
2022/02/18 17:52:07;;;;;;;8.73;1.65;;;10.90;55.00;;;;;;6274008;22;20011;-74
2022/02/18 17:54:33;;;;;;;11.98;1.92;;;11.00;55.50;;;;;;6273929;22;19996;-74
2022/02/18 17:57:00;;;;;;;8.55;1.88;;;11.00;55.30;;;;;;6259404;22;20478;-73
2022/02/18 17:59:26;;;;;;;11.13;1.90;;;11.10;54.90;;;;;;6274371;22;20058;-74
2022/02/18 18:01:52;;;;;;;8.95;1.50;;;11.00;54.80;;;;;;6274011;22;20004;-73
2022/02/18 18:04:18;;;;;;;8.70;1.50;;;11.00;55.10;;;;;;6273816;22;20074;-73
2022/02/18 18:06:45;;;;;;;12.75;2.08;;;10.90;55.50;;;;;;6274167;22;20347;-74
2022/02/18 18:09:10;;;;;;;11.32;2.38;;;10.80;55.80;;;;;;6273806;22;20000;-74
2022/02/18 18:11:37;;;;;;;12.57;2.30;;;10.70;56.60;;;;;;6274348;22;20368;-74
2022/02/18 18:14:04;;;;;;;10.52;2.67;;;10.60;57.70;;;;;;6271979;22;20026;-74
2022/02/18 18:16:35;;;;;;;11.98;2.53;;;10.50;58.40;;;;;;6273649;22;20519;-73
2022/02/18 18:19:03;;;;;;;12.80;2.30;;;10.40;58.70;;;;;;6273921;22;20053;-74
2022/02/18 18:21:30;;;;;;;9.68;2.03;;;10.40;58.80;;;;;;6273897;22;20325;-74
2022/02/18 18:23:59;;;;;;;11.70;2.17;;;10.30;59.30;;;;;;6274160;22;19999;-73
2022/02/18 18:26:25;;;;;;;10.38;2.15;;;10.20;59.40;;;;;;6273906;22;20062;-73
2022/02/18 18:28:50;;;;;;;11.30;2.30;;;10.20;60.60;;;;;;6273864;22;20340;-74
2022/02/18 18:31:16;;;;;;;13.90;2.53;;;10.10;60.60;;;;;;6273594;22;20026;-73
2022/02/18 18:33:42;;;;;;;16.05;2.25;;;10.10;60.80;;;;;;6273469;22;20031;-73
2022/02/18 18:36:08;;;;;;;12.68;2.80;;;10.00;61.40;;;;;;6273581;22;20451;-73
2022/02/18 18:38:35;;;;;;;12.85;2.80;;;10.00;62.00;;;;;;6273354;22;20058;-73
2022/02/18 18:41:02;;;;;;;16.05;2.70;;;10.00;62.30;;;;;;6273466;22;20448;-73
2022/02/18 18:43:28;;;;;;;17.35;3.22;;;9.90;63.00;;;;;;6271919;22;20445;-73
2022/02/18 18:45:54;;;;;;;15.23;2.67;;;9.90;63.70;;;;;;6273163;22;20093;-74
2022/02/18 18:48:25;;;;;;;17.60;3.10;;;9.90;63.80;;;;;;6274155;22;20014;-74
2022/02/18 18:50:55;;;;;;;16.40;2.90;;;9.80;63.70;;;;;;6273564;22;20073;-74
2022/02/18 18:53:22;;;;;;;20.15;3.35;;;9.90;63.20;;;;;;6273229;22;20031;-74
2022/02/18 18:55:47;;;;;;;14.60;2.40;;;9.90;63.80;;;;;;6273018;22;19996;-73
2022/02/18 18:58:14;;;;;;;17.02;2.60;;;9.90;63.30;;;;;;6273660;22;20037;-73
2022/02/18 19:00:44;;;;;;;14.50;2.15;;;9.90;62.70;;;;;;6272780;22;20360;-73
2022/02/18 19:03:11;;;;;;;16.20;2.00;;;10.00;61.50;;;;;;6246457;22;20004;-73
2022/02/18 19:05:37;;;;;;;15.48;2.40;;;10.10;60.80;;;;;;6273252;22;20010;-73
2022/02/18 19:08:05;;;;;;;16.75;2.97;;;10.20;60.50;;;;;;6272569;22;20003;-74
2022/02/18 19:10:30;;;;;;;13.63;2.80;;;10.20;61.00;;;;;;6273469;22;20008;-74
2022/02/18 19:12:56;;;;;;;14.88;2.42;;;10.20;59.40;;;;;;6273357;22;20034;-74
2022/02/18 19:15:22;;;;;;;18.08;2.30;;;10.20;60.00;;;;;;6273499;22;20000;-73
2022/02/18 19:17:50;;;;;;;15.48;2.42;;;10.20;60.10;;;;;;6273412;22;20007;-73
2022/02/18 19:20:16;;;;;;;16.88;2.35;;;10.20;59.80;;;;;;6246285;22;20003;-73
2022/02/18 19:22:43;;;;;;;17.80;2.53;;;10.20;60.00;;;;;;6273138;22;20004;-73
2022/02/18 19:25:11;;;;;;;21.30;2.53;;;10.20;59.80;;;;;;6273541;22;20357;-73
2022/02/18 19:27:38;;;;;;;20.35;3.03;;;10.20;59.90;;;;;;6272759;22;20355;-74
2022/02/18 19:30:06;;;;;;;16.30;2.70;;;10.20;59.80;;;;;;6272774;22;20000;-73
2022/02/18 19:32:34;;;;;;;17.00;1.98;;;10.30;59.10;;;;;;6273782;22;20057;-72
2022/02/18 19:35:00;;;;;;;19.90;2.45;;;10.30;60.10;;;;;;6272854;22;20007;-72
2022/02/18 19:37:28;;;;;;;15.43;2.38;;;10.40;60.20;;;;;;6272744;22;20004;-73
2022/02/18 19:39:54;;;;;;;12.05;1.90;;;10.40;61.00;;;;;;6272920;22;20004;-72
2022/02/18 19:42:19;;;;;;;11.50;1.70;;;10.40;61.70;;;;;;6272617;22;20007;-73
2022/02/18 19:44:45;;;;;;;9.57;1.27;;;10.30;62.70;;;;;;6272427;22;20006;-72
2022/02/18 19:47:11;;;;;;;11.65;2.00;;;10.20;63.90;;;;;;6273043;22;20010;-73
2022/02/18 19:49:37;;;;;;;11.65;1.65;;;10.00;65.40;;;;;;6273353;22;20424;-72
2022/02/18 19:52:05;;;;;;;8.40;1.52;;;9.80;67.10;;;;;;6272319;22;20019;-72
2022/02/18 19:54:31;;;;;;;14.68;2.22;;;9.60;68.30;;;;;;6272793;22;19995;-72
2022/02/18 19:56:57;;;;;;;11.50;1.40;;;9.40;69.30;;;;;;6272561;22;20018;-73
2022/02/18 19:59:26;;;;;;;14.10;2.20;;;9.30;70.80;;;;;;6273237;22;19992;-72
2022/02/18 20:01:53;;;;;;;11.85;1.65;;;9.20;71.80;;;;;;6272463;22;20034;-73
2022/02/18 20:04:19;;;;;;;13.13;1.77;;;9.10;72.40;;;;;;6272919;22;19995;-73
2022/02/18 20:06:46;;;;;;;10.70;2.10;;;9.00;73.20;;;;;;6272758;22;20008;-72
2022/02/18 20:09:12;;;;;;;16.17;2.60;;;8.90;73.80;;;;;;6273088;22;20000;-72
2022/02/18 20:11:38;;;;;;;12.13;2.25;;;8.90;74.20;;;;;;6272523;22;20034;-72
2022/02/18 20:14:04;;;;;;;13.77;2.20;;;8.80;74.80;;;;;;6271808;22;20004;-72
2022/02/18 20:16:31;;;;;;;14.27;2.17;;;8.70;76.00;;;;;;6272807;22;20077;-72
2022/02/18 20:18:56;;;;;;;16.30;2.30;;;8.70;76.70;;;;;;6272283;22;19995;-73
2022/02/18 20:21:22;;;;;;;15.32;2.03;;;8.60;76.70;;;;;;6272606;22;20007;-73
2022/02/18 20:23:48;;;;;;;16.65;2.33;;;8.60;77.30;;;;;;6273510;22;20089;-72
2022/02/18 20:26:14;;;;;;;16.67;2.13;;;8.50;78.40;;;;;;6245668;22;20007;-72
2022/02/18 20:28:40;;;;;;;15.75;1.95;;;8.50;78.80;;;;;;6272781;22;20004;-72
2022/02/18 20:31:08;;;;;;;13.15;2.00;;;8.50;79.40;;;;;;6272732;22;20007;-72
2022/02/18 20:33:36;;;;;;;15.45;2.00;;;8.40;80.10;;;;;;6272412;22;20304;-72
2022/02/18 20:36:04;;;;;;;16.67;2.10;;;8.40;80.50;;;;;;6273280;22;20397;-72
2022/02/18 20:38:30;;;;;;;8.57;1.55;;;8.30;81.10;;;;;;6272150;22;20004;-72
2022/02/18 20:40:55;;;;;;;15.27;2.10;;;8.30;81.80;;;;;;6272932;22;20007;-72
2022/02/18 20:43:21;;;;;;;11.07;1.63;;;8.30;81.90;;;;;;6273306;22;20004;-72
2022/02/18 20:45:51;;;;;;;16.38;2.40;;;8.20;82.40;;;;;;6272778;22;20436;-72
2022/02/18 20:48:17;;;;;;;12.40;2.05;;;8.20;82.90;;;;;;6272231;22;19999;-72
2022/02/18 20:50:43;;;;;;;12.18;1.85;;;8.20;84.40;;;;;;6272802;22;20095;-72
2022/02/18 20:53:09;;;;;;;14.77;2.20;;;8.10;83.30;;;;;;6273041;22;20096;-72
2022/02/18 20:55:36;;;;;;;13.50;1.92;;;8.10;83.30;;;;;;6272740;22;20008;-72
2022/02/18 20:58:03;;;;;;;11.82;2.10;;;8.10;83.50;;;;;;6272367;22;20056;-72
2022/02/18 21:00:30;;;;;;;9.30;1.55;;;8.00;83.70;;;;;;6272361;22;20003;-72
2022/02/18 21:02:56;;;;;;;16.08;2.30;;;8.00;84.00;;;;;;6273023;22;19999;-72
2022/02/18 21:05:23;;;;;;;19.10;2.28;;;8.00;83.90;;;;;;6272848;22;20023;-72
2022/02/18 21:07:49;;;;;;;11.10;1.92;;;8.00;84.40;;;;;;6272853;22;19996;-72
2022/02/18 21:10:15;;;;;;;15.43;2.45;;;7.90;84.70;;;;;;6272779;22;20014;-72
2022/02/18 21:12:41;;;;;;;18.65;2.20;;;7.90;85.30;;;;;;6272426;22;20012;-72
2022/02/18 21:15:07;;;;;;;15.90;2.00;;;7.90;85.30;;;;;;6272572;22;19996;-72
2022/02/18 21:17:33;;;;;;;15.30;2.13;;;7.90;85.30;;;;;;6272535;22;20356;-72
2022/02/18 21:19:59;;;;;;;12.45;1.95;;;7.80;85.40;;;;;;6272721;22;19999;-72
2022/02/18 21:22:28;;;;;;;14.43;1.90;;;7.80;85.50;;;;;;6272959;22;20042;-72
2022/02/18 21:24:58;;;;;;;20.33;2.15;;;7.90;85.40;;;;;;6274132;22;20086;-73
2022/02/18 21:27:28;;;;;;;14.38;1.88;;;7.80;85.30;;;;;;6274625;22;20019;-72
2022/02/18 21:29:55;;;;;;;18.35;2.30;;;7.80;85.90;;;;;;6275044;22;20061;-72
2022/02/18 21:32:22;;;;;;;12.13;1.90;;;7.80;85.90;;;;;;6273836;22;20008;-72
2022/02/18 21:34:48;;;;;;;11.43;1.90;;;7.80;85.50;;;;;;6274527;22;20476;-72
2022/02/18 21:37:18;;;;;;;14.95;2.60;;;7.70;85.70;;;;;;6274325;22;20007;-72
2022/02/18 21:39:48;;;;;;;13.27;1.80;;;7.70;85.80;;;;;;6274534;22;20000;-72
2022/02/18 21:42:14;;;;;;;12.93;1.77;;;7.70;86.60;;;;;;6274890;22;20004;-72
2022/02/18 21:44:41;;;;;;;13.10;1.77;;;7.60;86.30;;;;;;6274290;22;20007;-72
2022/02/18 21:47:08;;;;;;;10.63;1.80;;;7.60;86.70;;;;;;6274157;22;20004;-72
2022/02/18 21:49:34;;;;;;;14.80;2.58;;;7.60;86.70;;;;;;6273854;22;20027;-72
2022/02/18 21:52:00;;;;;;;11.77;1.85;;;7.50;87.00;;;;;;6274313;22;20011;-72
2022/02/18 21:54:26;;;;;;;13.45;1.80;;;7.50;87.00;;;;;;6247574;22;20007;-72
2022/02/18 21:56:52;;;;;;;14.27;1.90;;;7.50;87.00;;;;;;6273926;22;20030;-72
2022/02/18 21:59:18;;;;;;;11.32;1.83;;;7.50;87.20;;;;;;6274081;22;20023;-73
2022/02/18 22:01:44;;;;;;;9.98;1.60;;;7.40;87.20;;;;;;6274135;22;20494;-73
2022/02/18 22:04:10;;;;;;;12.43;1.80;;;7.50;87.30;;;;;;6274389;22;20008;-73
2022/02/18 22:06:36;;;;;;;13.90;1.52;;;7.40;87.50;;;;;;6246717;22;20004;-72
2022/02/18 22:09:02;;;;;;;12.18;1.83;;;7.40;88.00;;;;;;6273944;22;20000;-72
2022/02/18 22:11:28;;;;;;;14.13;1.92;;;7.40;88.20;;;;;;6274557;22;20007;-72
2022/02/18 22:13:53;;;;;;;16.90;1.67;;;7.30;88.40;;;;;;6274238;22;20079;-72
2022/02/18 22:16:19;;;;;;;14.20;1.88;;;7.30;88.90;;;;;;6273889;22;20010;-73
2022/02/18 22:18:45;;;;;;;12.27;1.80;;;7.30;89.50;;;;;;6274297;22;20003;-72
2022/02/18 22:21:11;;;;;;;13.75;2.05;;;7.20;89.50;;;;;;6274620;22;20000;-72
2022/02/18 22:23:37;;;;;;;13.65;1.90;;;7.20;89.70;;;;;;6274160;22;20348;-72
2022/02/18 22:26:03;;;;;;;17.42;2.08;;;7.20;89.80;;;;;;6273878;22;20000;-72
2022/02/18 22:28:30;;;;;;;10.75;2.00;;;7.20;89.90;;;;;;6274047;22;20004;-72
2022/02/18 22:30:56;;;;;;;17.75;2.05;;;7.20;90.10;;;;;;6273858;22;20010;-72
2022/02/18 22:33:22;;;;;;;12.32;1.95;;;7.20;90.30;;;;;;6274319;22;20058;-72
2022/02/18 22:35:48;;;;;;;10.27;1.63;;;7.10;90.50;;;;;;6273599;22;20080;-72
2022/02/18 22:38:14;;;;;;;13.70;1.65;;;7.10;90.50;;;;;;6273980;22;20007;-72
2022/02/18 22:40:40;;;;;;;19.90;2.30;;;7.10;90.70;;;;;;6274101;22;20057;-72
2022/02/18 22:43:06;;;;;;;11.40;1.48;;;7.10;90.80;;;;;;6274197;22;20000;-72
2022/02/18 22:45:31;;;;;;;11.50;1.98;;;7.10;90.70;;;;;;6273546;22;20038;-72
2022/02/18 22:47:57;;;;;;;17.27;2.05;;;7.00;90.70;;;;;;6274135;22;20003;-72
2022/02/18 22:50:23;;;;;;;12.43;1.88;;;7.00;90.90;;;;;;6273914;22;20006;-72
2022/02/18 22:52:49;;;;;;;17.05;1.83;;;7.00;90.90;;;;;;6246505;22;20016;-72
2022/02/18 22:55:15;;;;;;;13.88;1.90;;;6.90;91.40;;;;;;6273895;22;19999;-72
2022/02/18 22:57:43;;;;;;;13.60;1.80;;;6.90;91.10;;;;;;6274012;22;20018;-72
2022/02/18 23:00:10;;;;;;;15.85;2.13;;;6.90;91.20;;;;;;6274060;22;20061;-72
2022/02/18 23:02:36;;;;;;;12.75;1.80;;;6.90;91.30;;;;;;6273391;22;20014;-73
2022/02/18 23:05:03;;;;;;;14.90;2.00;;;6.80;91.40;;;;;;6273855;22;20000;-72
2022/02/18 23:07:29;;;;;;;16.08;1.88;;;6.80;91.40;;;;;;6273525;22;19999;-72
2022/02/18 23:09:57;;;;;;;13.35;1.90;;;6.80;91.60;;;;;;6274026;22;20031;-72
2022/02/18 23:12:23;;;;;;;15.88;1.88;;;6.80;91.70;;;;;;6273781;22;20512;-72
2022/02/18 23:14:50;;;;;;;17.52;2.55;;;6.70;91.60;;;;;;6273732;22;20026;-72